createdAt,value
2022-08-17T00:01:51.343Z,19.33
2022-08-17T00:04:23.126Z,19.38
2022-08-17T00:06:51.307Z,19.32
2022-08-17T00:09:19.591Z,19.24
2022-08-17T00:12:40.469Z,19.20
2022-08-17T00:14:37.998Z,19.19
2022-08-17T00:17:06.344Z,19.19
2022-08-17T00:19:35.700Z,19.27
2022-08-17T00:22:31.113Z,19.25
2022-08-17T00:24:54.990Z,19.17
2022-08-17T00:27:23.084Z,19.07
2022-08-17T00:29:51.861Z,19.01
2022-08-17T00:33:15.124Z,19.03
2022-08-17T00:35:12.597Z,19.02
2022-08-17T00:37:40.641Z,18.97
2022-08-17T00:40:10.628Z,18.90
2022-08-17T00:42:39.258Z,18.77
2022-08-17T00:45:09.683Z,18.72
2022-08-17T00:47:38.018Z,18.65
2022-08-17T00:50:07.827Z,18.61
2022-08-17T00:52:43.136Z,18.57
2022-08-17T00:55:11.902Z,18.53
2022-08-17T00:57:43.441Z,18.43
2022-08-17T01:00:19.542Z,18.33
2022-08-17T01:02:49.250Z,18.22
2022-08-17T01:05:19.095Z,18.16
2022-08-17T01:07:50.695Z,18.07
2022-08-17T01:11:00.004Z,18.06
2022-08-17T01:13:12.210Z,18.03
2022-08-17T01:15:46.169Z,17.99
2022-08-17T01:18:15.868Z,18.02
2022-08-17T01:20:48.922Z,17.98
2022-08-17T01:23:21.238Z,17.92
2022-08-17T01:25:50.763Z,17.84
2022-08-17T01:28:52.540Z,17.76
2022-08-17T01:31:08.914Z,17.66
2022-08-17T01:33:37.447Z,17.58
2022-08-17T01:36:07.363Z,17.52
2022-08-17T01:38:38.284Z,17.46
2022-08-17T01:41:09.414Z,17.42
2022-08-17T01:43:44.575Z,17.38
2022-08-17T01:46:16.853Z,17.33
2022-08-17T01:48:47.296Z,17.29
2022-08-17T01:51:16.415Z,17.33
2022-08-17T01:53:50.560Z,17.31
2022-08-17T01:56:22.635Z,17.27
2022-08-17T01:58:51.750Z,17.25
2022-08-17T02:01:22.765Z,17.19
2022-08-17T02:03:59.338Z,17.15
2022-08-17T02:06:31.390Z,17.15
2022-08-17T02:09:16.916Z,17.14
2022-08-17T02:11:46.239Z,17.23
2022-08-17T02:14:14.760Z,17.30
2022-08-17T02:16:43.669Z,17.28
2022-08-17T02:19:16.895Z,17.29
2022-08-17T02:21:47.081Z,17.25
2022-08-17T02:24:59.780Z,17.24
2022-08-17T02:27:09.540Z,17.19
2022-08-17T02:29:38.036Z,17.17
2022-08-17T02:32:06.751Z,17.12
2022-08-17T02:34:34.808Z,17.10
2022-08-17T02:37:02.727Z,17.07
2022-08-17T02:39:32.161Z,17.04
2022-08-17T02:42:04.737Z,17.01
2022-08-17T02:44:39.981Z,17.01
2022-08-17T02:47:10.189Z,17.01
2022-08-17T02:49:38.589Z,17.01
2022-08-17T02:52:08.533Z,17.00
2022-08-17T02:54:41.583Z,17.03
2022-08-17T02:57:10.534Z,17.06
2022-08-17T02:59:38.803Z,17.06
2022-08-17T03:02:08.184Z,17.05
2022-08-17T03:04:36.798Z,17.05
2022-08-17T03:07:05.527Z,17.00
2022-08-17T03:09:34.032Z,16.96
2022-08-17T03:12:08.983Z,16.92
2022-08-17T03:14:41.516Z,16.89
2022-08-17T03:17:11.150Z,16.82
2022-08-17T03:19:45.228Z,16.77
2022-08-17T03:22:36.264Z,16.72
2022-08-17T03:25:01.213Z,16.65
2022-08-17T03:27:31.750Z,16.61
2022-08-17T03:29:59.653Z,16.56
2022-08-17T03:32:27.939Z,16.54
2022-08-17T03:34:59.367Z,16.55
2022-08-17T03:37:27.792Z,16.53
2022-08-17T03:39:55.820Z,16.52
2022-08-17T03:42:32.527Z,16.52
2022-08-17T03:45:03.223Z,16.65
2022-08-17T03:47:48.820Z,16.68
2022-08-17T03:50:35.541Z,16.89
2022-08-17T03:53:23.762Z,17.03
2022-08-17T03:56:09.334Z,17.03
2022-08-17T03:58:37.761Z,17.04
2022-08-17T04:01:07.986Z,17.12
2022-08-17T04:03:36.036Z,17.33
2022-08-17T04:06:04.251Z,17.42
2022-08-17T04:08:32.898Z,17.51
2022-08-17T04:11:02.093Z,17.53
2022-08-17T04:13:30.257Z,17.67
2022-08-17T04:15:59.157Z,17.70
2022-08-17T04:18:28.577Z,17.80
2022-08-17T04:20:56.909Z,17.80
2022-08-17T04:23:32.564Z,17.74
2022-08-17T04:26:00.826Z,17.78
2022-08-17T04:28:29.926Z,17.68
2022-08-17T04:30:58.433Z,17.58
2022-08-17T04:33:29.447Z,17.57
2022-08-17T04:35:59.366Z,17.59
2022-08-17T04:38:29.027Z,17.61
2022-08-17T04:41:15.379Z,17.71
2022-08-17T04:43:44.830Z,17.88
2022-08-17T04:46:14.995Z,18.06
2022-08-17T04:48:45.919Z,18.19
2022-08-17T04:51:17.778Z,18.01
2022-08-17T04:53:53.822Z,17.94
2022-08-17T04:56:23.418Z,17.87
2022-08-17T04:58:54.256Z,17.88
2022-08-17T05:01:24.853Z,17.95
2022-08-17T05:03:56.445Z,17.98
2022-08-17T05:06:25.155Z,18.08
2022-08-17T05:08:53.981Z,18.23
2022-08-17T05:11:22.436Z,18.30
2022-08-17T05:13:50.999Z,18.49
2022-08-17T05:16:20.077Z,18.67
2022-08-17T05:18:48.253Z,18.83
2022-08-17T05:21:18.162Z,18.87
2022-08-17T05:23:53.908Z,19.06
2022-08-17T05:26:26.297Z,19.13
2022-08-17T05:29:00.335Z,19.11
2022-08-17T05:31:31.806Z,19.12
2022-08-17T05:34:00.118Z,19.22
2022-08-17T05:36:41.684Z,19.39
2022-08-17T05:39:15.781Z,19.43
2022-08-17T05:41:46.464Z,19.43
2022-08-17T05:44:14.284Z,19.50
2022-08-17T05:46:46.675Z,19.65
2022-08-17T05:49:17.102Z,19.79
2022-08-17T05:52:18.903Z,19.85
2022-08-17T05:55:04.025Z,19.88
2022-08-17T05:57:47.512Z,20.03
2022-08-17T06:00:30.288Z,20.05
2022-08-17T06:03:20.275Z,20.15
2022-08-17T06:06:25.297Z,20.29
2022-08-17T06:09:13.018Z,20.44
2022-08-17T06:11:47.918Z,20.54
2022-08-17T06:14:36.547Z,20.65
2022-08-17T06:17:09.132Z,20.75
2022-08-17T06:19:41.869Z,20.55
2022-08-17T06:22:13.531Z,20.53
2022-08-17T06:24:46.689Z,20.45
2022-08-17T06:27:24.348Z,20.35
2022-08-17T06:29:58.647Z,20.18
2022-08-17T06:32:27.009Z,20.19
2022-08-17T06:34:55.229Z,20.20
2022-08-17T06:37:42.090Z,20.36
2022-08-17T06:40:32.716Z,20.58
2022-08-17T06:43:17.213Z,20.73
2022-08-17T06:45:50.034Z,21.08
2022-08-17T06:48:25.329Z,21.63
2022-08-17T06:50:59.909Z,22.09
2022-08-17T06:53:35.784Z,22.24
2022-08-17T06:56:08.619Z,22.12
2022-08-17T06:58:40.370Z,22.31
2022-08-17T07:01:11.562Z,22.37
2022-08-17T07:03:45.152Z,22.29
2022-08-17T07:06:16.768Z,22.30
2022-08-17T07:08:52.427Z,22.25
2022-08-17T07:11:27.199Z,22.26
2022-08-17T07:14:06.848Z,22.27
2022-08-17T07:16:42.057Z,22.23
2022-08-17T07:19:11.258Z,22.19
2022-08-17T07:21:50.136Z,22.15
2022-08-17T07:24:33.117Z,22.10
2022-08-17T07:27:15.207Z,21.99
2022-08-17T07:29:53.567Z,21.95
2022-08-17T07:32:26.332Z,21.82
2022-08-17T07:35:11.735Z,21.79
2022-08-17T07:37:41.806Z,21.72
2022-08-17T07:40:26.360Z,21.60
2022-08-17T07:43:03.323Z,21.47
2022-08-17T07:45:53.458Z,21.50
2022-08-17T07:48:24.294Z,21.47
2022-08-17T07:50:53.909Z,21.54
2022-08-17T07:53:25.563Z,21.50
2022-08-17T07:55:54.569Z,21.58
2022-08-17T07:58:24.424Z,21.67
2022-08-17T08:01:10.371Z,21.75
2022-08-17T08:03:43.503Z,21.88
2022-08-17T08:06:22.191Z,21.92
2022-08-17T08:08:53.603Z,22.02
2022-08-17T08:11:31.097Z,21.92
2022-08-17T08:14:21.651Z,22.02
2022-08-17T08:17:01.057Z,22.28
2022-08-17T08:19:31.074Z,22.65
2022-08-17T08:22:05.993Z,22.92
2022-08-17T08:24:52.766Z,23.08
2022-08-17T08:27:32.719Z,23.35
2022-08-17T08:30:07.584Z,23.47
2022-08-17T08:32:57.340Z,23.78
2022-08-17T08:35:32.347Z,23.40
2022-08-17T08:38:11.822Z,23.44
2022-08-17T08:40:55.682Z,23.51
2022-08-17T08:43:31.773Z,23.36
2022-08-17T08:46:11.328Z,23.42
2022-08-17T08:49:10.253Z,23.38
2022-08-17T08:51:48.629Z,23.26
2022-08-17T08:54:34.639Z,23.23
2022-08-17T08:57:29.176Z,23.05
2022-08-17T09:00:12.752Z,23.20
2022-08-17T09:03:09.403Z,23.17
2022-08-17T09:06:01.647Z,23.17
2022-08-17T09:08:36.511Z,23.00
2022-08-17T09:11:07.533Z,23.18
2022-08-17T09:13:46.221Z,23.42
2022-08-17T09:16:29.875Z,23.58
2022-08-17T09:19:05.364Z,24.05
2022-08-17T09:21:47.710Z,24.46
2022-08-17T09:24:24.790Z,25.19
2022-08-17T09:26:59.821Z,25.52
2022-08-17T09:29:35.082Z,25.80
2022-08-17T09:32:10.643Z,26.21
2022-08-17T09:34:44.544Z,26.20
2022-08-17T09:37:23.521Z,26.34
2022-08-17T09:39:59.152Z,26.41
2022-08-17T09:42:32.222Z,26.20
2022-08-17T09:45:22.885Z,26.37
2022-08-17T09:47:55.832Z,26.27
2022-08-17T09:50:55.278Z,26.30
2022-08-17T09:53:20.947Z,26.68
2022-08-17T09:56:04.052Z,26.63
2022-08-17T09:58:56.327Z,26.57
2022-08-17T10:01:31.332Z,26.71
2022-08-17T10:04:11.716Z,26.68
2022-08-17T10:06:50.915Z,26.42
2022-08-17T10:09:23.083Z,26.36
2022-08-17T10:12:17.086Z,26.10
2022-08-17T10:14:58.539Z,25.92
2022-08-17T10:17:44.021Z,25.85
2022-08-17T10:20:17.301Z,26.01
2022-08-17T10:23:07.875Z,26.22
2022-08-17T10:26:02.666Z,25.82
2022-08-17T10:28:37.415Z,25.72
2022-08-17T10:31:33.794Z,25.48
2022-08-17T10:34:07.979Z,25.33
2022-08-17T10:36:48.227Z,25.02
2022-08-17T10:39:26.950Z,24.92
2022-08-17T10:42:00.582Z,24.42
2022-08-17T10:44:42.322Z,24.61
2022-08-17T10:47:13.691Z,24.49
2022-08-17T10:49:49.597Z,24.36
2022-08-17T10:52:51.962Z,24.20
2022-08-17T10:55:21.212Z,24.17
2022-08-17T10:57:54.738Z,24.38
2022-08-17T11:01:05.679Z,24.37
2022-08-17T11:03:34.191Z,24.24
2022-08-17T11:06:15.324Z,24.44
2022-08-17T11:09:07.942Z,24.34
2022-08-17T11:12:00.297Z,24.02
2022-08-17T11:14:49.451Z,24.24
2022-08-17T11:17:37.414Z,24.31
2022-08-17T11:20:24.731Z,24.77
2022-08-17T11:23:23.813Z,25.07
2022-08-17T11:25:54.459Z,25.29
2022-08-17T11:28:26.210Z,25.30
2022-08-17T11:30:58.973Z,25.13
2022-08-17T11:33:55.932Z,25.73
2022-08-17T11:36:38.526Z,26.24
2022-08-17T11:39:23.666Z,25.94
2022-08-17T11:42:01.799Z,26.54
2022-08-17T11:44:41.271Z,27.90
2022-08-17T11:47:36.438Z,27.95
2022-08-17T11:50:40.641Z,28.82
2022-08-17T11:53:47.501Z,28.80
2022-08-17T11:59:41.846Z,28.26
2022-08-17T12:02:35.259Z,28.31
2022-08-17T12:05:30.965Z,29.62
2022-08-17T12:08:21.235Z,29.95
2022-08-17T12:11:04.330Z,29.58
2022-08-17T12:13:40.034Z,28.93
2022-08-17T12:16:09.865Z,29.38
2022-08-17T12:18:41.859Z,28.73
2022-08-17T12:21:25.998Z,28.40
2022-08-17T12:24:00.846Z,28.31
2022-08-17T12:26:33.348Z,28.08
2022-08-17T12:29:03.639Z,28.40
2022-08-17T12:31:37.719Z,28.11
2022-08-17T12:34:15.699Z,28.46
2022-08-17T12:36:44.280Z,28.43
2022-08-17T12:39:14.011Z,27.88
2022-08-17T12:41:46.706Z,27.92
2022-08-17T12:44:17.457Z,27.92
2022-08-17T12:46:56.546Z,27.74
2022-08-17T12:49:27.929Z,27.56
2022-08-17T12:52:04.368Z,27.37
2022-08-17T12:54:40.693Z,27.20
2022-08-17T12:57:13.996Z,26.62
2022-08-17T12:59:45.841Z,26.64
2022-08-17T13:02:23.303Z,26.33
2022-08-17T13:04:52.819Z,26.48
2022-08-17T13:07:29.524Z,26.80
2022-08-17T13:09:57.642Z,27.34
2022-08-17T13:12:31.797Z,27.33
2022-08-17T13:15:01.003Z,27.19
2022-08-17T13:17:31.197Z,26.48
2022-08-17T13:20:00.610Z,27.14
2022-08-17T13:22:32.439Z,27.49
2022-08-17T13:25:05.403Z,27.20
2022-08-17T13:27:34.358Z,27.24
2022-08-17T13:30:06.621Z,27.18
2022-08-17T13:32:44.289Z,27.47
2022-08-17T13:35:42.906Z,27.46
2022-08-17T13:38:16.073Z,29.17
2022-08-17T13:40:50.056Z,30.12
2022-08-17T13:43:44.562Z,30.10
2022-08-17T13:46:19.568Z,29.91
2022-08-17T13:48:58.118Z,29.45
2022-08-17T13:51:31.217Z,29.34
2022-08-17T13:54:03.518Z,29.89
2022-08-17T13:56:39.581Z,31.03
2022-08-17T13:59:12.236Z,31.00
2022-08-17T14:01:42.788Z,32.11
2022-08-17T14:04:12.792Z,32.10
2022-08-17T14:06:54.174Z,32.10
2022-08-17T14:09:26.322Z,31.93
2022-08-17T14:11:56.315Z,31.76
2022-08-17T14:14:25.190Z,31.86
2022-08-17T14:16:54.449Z,32.06
2022-08-17T14:19:22.896Z,31.06
2022-08-17T14:21:56.391Z,31.81
2022-08-17T14:24:26.896Z,32.10
2022-08-17T14:26:55.352Z,31.73
2022-08-17T14:29:25.804Z,31.70
2022-08-17T14:31:54.794Z,31.58
2022-08-17T14:34:22.922Z,31.42
2022-08-17T14:36:53.053Z,31.93
2022-08-17T14:39:21.851Z,31.57
2022-08-17T14:41:50.292Z,31.55
2022-08-17T14:44:18.281Z,31.14
2022-08-17T14:46:47.939Z,31.20
2022-08-17T14:49:17.058Z,31.78
2022-08-17T14:51:45.091Z,31.34
2022-08-17T14:54:33.105Z,31.59
2022-08-17T14:57:23.341Z,31.03
2022-08-17T14:59:54.714Z,30.55
2022-08-17T15:02:30.363Z,31.15
2022-08-17T15:05:03.385Z,31.78
2022-08-17T15:07:31.838Z,31.85
2022-08-17T15:10:02.069Z,32.01
2022-08-17T15:12:33.545Z,31.77
2022-08-17T15:15:02.102Z,31.65
2022-08-17T15:17:44.375Z,31.94
2022-08-17T15:20:24.806Z,31.71
2022-08-17T15:22:55.040Z,31.61
2022-08-17T15:25:26.601Z,31.63
2022-08-17T15:27:55.424Z,31.57
2022-08-17T15:30:23.908Z,31.34
2022-08-17T15:32:54.930Z,31.11
2022-08-17T15:35:27.147Z,30.64
2022-08-17T15:37:56.030Z,30.82
2022-08-17T15:40:26.008Z,30.91
2022-08-17T15:42:54.370Z,30.56
2022-08-17T15:45:26.463Z,30.80
2022-08-17T15:47:54.827Z,30.53
2022-08-17T15:50:23.136Z,30.29
2022-08-17T15:52:58.155Z,30.19
2022-08-17T15:55:29.508Z,30.23
2022-08-17T15:57:57.628Z,29.96
2022-08-17T16:00:25.988Z,29.94
2022-08-17T16:03:45.128Z,29.96
2022-08-17T16:05:42.419Z,29.89
2022-08-17T16:08:11.144Z,29.69
2022-08-17T16:10:40.619Z,29.46
2022-08-17T16:13:17.615Z,29.51
2022-08-17T16:15:56.594Z,29.58
2022-08-17T16:18:30.875Z,29.56
2022-08-17T16:21:19.593Z,29.33
2022-08-17T16:23:47.722Z,29.20
2022-08-17T16:26:17.992Z,29.38
2022-08-17T16:28:46.565Z,29.35
2022-08-17T16:31:15.609Z,29.28
2022-08-17T16:34:16.233Z,29.18
2022-08-17T16:36:32.770Z,29.21
2022-08-17T16:39:01.443Z,29.12
2022-08-17T16:41:46.185Z,29.01
2022-08-17T16:44:15.787Z,28.82
2022-08-17T16:46:45.516Z,28.67
2022-08-17T16:49:24.498Z,28.63
2022-08-17T16:52:03.941Z,28.69
2022-08-17T16:54:32.526Z,28.73
2022-08-17T16:57:03.948Z,28.78
2022-08-17T16:59:40.883Z,28.69
2022-08-17T17:02:14.807Z,28.58
2022-08-17T17:04:51.417Z,28.46
2022-08-17T17:07:41.210Z,28.44
2022-08-17T17:10:15.120Z,28.36
2022-08-17T17:13:04.010Z,28.17
2022-08-17T17:15:48.199Z,28.06
2022-08-17T17:18:17.037Z,28.02
2022-08-17T17:20:51.420Z,27.92
2022-08-17T17:23:35.983Z,27.76
2022-08-17T17:26:18.627Z,27.65
2022-08-17T17:29:02.660Z,27.59
2022-08-17T17:31:38.241Z,27.46
2022-08-17T17:34:11.249Z,27.40
2022-08-17T17:36:41.824Z,27.32
2022-08-17T17:39:14.126Z,27.24
2022-08-17T17:41:47.600Z,27.17
2022-08-17T17:44:20.812Z,27.03
2022-08-17T17:46:52.397Z,26.93
2022-08-17T17:49:20.578Z,26.72
2022-08-17T17:52:11.020Z,26.65
2022-08-17T17:54:53.965Z,26.53
2022-08-17T17:57:30.813Z,26.41
2022-08-17T18:00:09.119Z,26.30
2022-08-17T18:02:56.416Z,26.17
2022-08-17T18:05:40.340Z,26.06
2022-08-17T18:08:19.037Z,25.99
2022-08-17T18:10:54.715Z,25.89
2022-08-17T18:13:33.130Z,25.77
2022-08-17T18:16:04.747Z,25.61
2022-08-17T18:18:40.751Z,25.48
2022-08-17T18:21:15.694Z,25.40
2022-08-17T18:23:48.118Z,25.29
2022-08-17T18:26:36.476Z,25.13
2022-08-17T18:29:23.327Z,25.04
2022-08-17T18:32:13.549Z,24.88
2022-08-17T18:34:47.682Z,24.75
2022-08-17T18:37:42.598Z,24.52
2022-08-17T18:40:27.826Z,24.32
2022-08-17T18:43:23.364Z,24.16
2022-08-17T18:45:54.566Z,24.19
2022-08-17T18:48:29.148Z,24.08
2022-08-17T18:51:01.902Z,23.99
2022-08-17T18:53:38.181Z,23.90
2022-08-17T18:56:26.758Z,23.78
2022-08-17T18:59:03.470Z,23.68
2022-08-17T19:01:53.486Z,23.63
2022-08-17T19:04:37.042Z,23.56
2022-08-17T19:07:09.913Z,23.57
2022-08-17T19:09:43.536Z,23.49
2022-08-17T19:12:27.150Z,23.48
2022-08-17T19:14:57.546Z,23.36
2022-08-17T19:17:38.928Z,23.30
2022-08-17T19:20:15.372Z,23.22
2022-08-17T19:22:53.579Z,23.15
2022-08-17T19:25:27.269Z,23.07
2022-08-17T19:28:03.220Z,22.98
2022-08-17T19:30:32.047Z,22.91
2022-08-17T19:33:02.291Z,22.82
2022-08-17T19:35:43.471Z,22.73
2022-08-17T19:38:26.506Z,22.66
2022-08-17T19:41:06.438Z,22.60
2022-08-17T19:43:58.087Z,22.57
2022-08-17T19:47:00.753Z,22.51
2022-08-17T19:49:41.152Z,22.44
2022-08-17T19:52:36.264Z,22.34
2022-08-17T19:55:10.147Z,22.25
2022-08-17T19:57:48.675Z,22.24
2022-08-17T20:00:18.823Z,22.17
2022-08-17T20:02:58.684Z,22.06
2022-08-17T20:05:30.190Z,21.97
2022-08-17T20:08:05.359Z,21.92
2022-08-17T20:10:45.201Z,21.80
2022-08-17T20:13:33.217Z,21.72
2022-08-17T20:16:02.647Z,21.64
2022-08-17T20:18:37.709Z,21.57
2022-08-17T20:21:20.436Z,21.53
2022-08-17T20:23:55.165Z,21.43
2022-08-17T20:26:27.245Z,21.37
2022-08-17T20:29:39.779Z,21.29
2022-08-17T20:32:22.383Z,21.20
2022-08-17T20:35:04.186Z,21.11
2022-08-17T20:37:35.096Z,21.01
2022-08-17T20:40:20.472Z,20.95
2022-08-17T20:42:48.673Z,20.91
2022-08-17T20:45:59.408Z,20.84
2022-08-17T20:48:39.143Z,20.77
2022-08-17T20:51:18.889Z,20.71
2022-08-17T20:54:34.040Z,20.77
2022-08-17T20:57:13.770Z,20.78
2022-08-17T21:00:13.691Z,20.74
2022-08-17T21:02:44.300Z,20.67
2022-08-17T21:05:57.374Z,20.61
2022-08-17T21:08:31.668Z,20.55
2022-08-17T21:11:01.691Z,20.62
2022-08-17T21:14:05.012Z,20.70
2022-08-17T21:16:45.646Z,20.67
2022-08-17T21:19:30.957Z,20.61
2022-08-17T21:22:12.861Z,20.58
2022-08-17T21:24:53.451Z,20.50
2022-08-17T21:27:35.730Z,20.49
2022-08-17T21:30:40.180Z,20.45
2022-08-17T21:33:23.676Z,20.52
2022-08-17T21:35:54.134Z,20.52
2022-08-17T21:38:35.813Z,20.47
2022-08-17T21:41:03.933Z,20.45
2022-08-17T21:43:35.300Z,20.46
2022-08-17T21:46:09.298Z,20.49
2022-08-17T21:48:43.881Z,20.53
2022-08-17T21:51:19.016Z,20.47
2022-08-17T21:53:51.956Z,20.38
2022-08-17T21:56:26.297Z,20.35
2022-08-17T21:58:58.953Z,20.38
2022-08-17T22:01:31.543Z,20.37
2022-08-17T22:04:05.739Z,20.37
2022-08-17T22:06:39.011Z,20.36
2022-08-17T22:09:17.192Z,20.35
2022-08-17T22:11:59.281Z,20.31
2022-08-17T22:14:53.003Z,20.19
2022-08-17T22:17:23.696Z,20.14
2022-08-17T22:19:54.538Z,20.13
2022-08-17T22:22:55.703Z,20.07
2022-08-17T22:25:24.727Z,20.01
2022-08-17T22:27:56.520Z,20.01
2022-08-17T22:30:32.139Z,20.16
2022-08-17T22:33:03.343Z,20.17
2022-08-17T22:35:34.957Z,20.12
2022-08-17T22:38:32.152Z,20.04
2022-08-17T22:41:40.791Z,19.92
2022-08-17T22:44:17.191Z,19.79
2022-08-17T22:47:00.829Z,19.72
2022-08-17T22:49:36.512Z,19.68
2022-08-17T22:52:19.372Z,19.68
2022-08-17T22:55:09.421Z,19.69
2022-08-17T22:57:52.066Z,19.70
2022-08-17T23:00:33.410Z,19.71
2022-08-17T23:03:12.026Z,19.81
2022-08-17T23:05:44.854Z,19.86
2022-08-17T23:08:13.555Z,19.85
2022-08-17T23:10:42.671Z,19.79
2022-08-17T23:13:12.148Z,19.77
2022-08-17T23:15:41.584Z,19.73
2022-08-17T23:18:09.635Z,19.71
2022-08-17T23:20:40.044Z,19.72
2022-08-17T23:23:11.190Z,19.80
2022-08-17T23:25:39.629Z,19.75
2022-08-17T23:28:08.253Z,19.74
2022-08-17T23:30:42.074Z,19.72
2022-08-17T23:33:18.115Z,19.72
2022-08-17T23:35:46.256Z,19.71
2022-08-17T23:38:15.695Z,19.72
2022-08-17T23:40:43.689Z,19.74
2022-08-17T23:43:24.801Z,19.91
2022-08-17T23:45:54.966Z,19.89
2022-08-17T23:48:32.703Z,19.87
2022-08-17T23:51:07.230Z,19.86
2022-08-17T23:53:37.709Z,19.81
2022-08-17T23:56:09.508Z,19.79
2022-08-17T23:58:39.084Z,19.91
